Time;durP1;ratioP1;P1;durP2;ratioP2;P2;SDS_P1;SDS_P2;PMS_P1;PMS_P2;Temp;Humidity;BMP_temperature;BMP_pressure;BME280_temperature;BME280_humidity;BME280_pressure;Samples;Min_cycle;Max_cycle;Signal;HPM_P1;HPM_P2
2024/01/08 00:00:37;;;;;;;8.18;3.38;;;1.90;99.90;;;;;;5081580;28;20043;-65
2024/01/08 00:03:05;;;;;;;11.27;4.15;;;1.70;99.90;;;;;;5077453;28;20052;-66
2024/01/08 00:05:38;;;;;;;8.38;3.75;;;1.60;99.90;;;;;;5087495;28;20043;-69
2024/01/08 00:08:07;;;;;;;14.10;4.57;;;1.50;99.90;;;;;;5086652;28;20060;-65
2024/01/08 00:10:38;;;;;;;10.00;4.13;;;1.40;99.90;;;;;;5077544;28;20044;-67
2024/01/08 00:13:07;;;;;;;6.45;4.38;;;1.30;99.90;;;;;;5078604;28;20044;-65
2024/01/08 00:15:35;;;;;;;9.20;4.25;;;1.20;99.90;;;;;;5048681;28;20053;-68
2024/01/08 00:18:03;;;;;;;6.78;3.95;;;1.10;99.90;;;;;;5072686;28;20051;-72
2024/01/08 00:20:31;;;;;;;10.02;4.70;;;1.00;99.90;;;;;;5083645;28;20037;-65
2024/01/08 00:22:59;;;;;;;8.38;4.13;;;0.90;99.90;;;;;;5065522;28;20048;-67
2024/01/08 00:25:26;;;;;;;13.18;4.25;;;0.90;99.90;;;;;;5069630;28;20053;-67
2024/01/08 00:27:56;;;;;;;10.38;4.95;;;0.90;99.90;;;;;;5068662;28;20055;-65
2024/01/08 00:30:23;;;;;;;14.27;6.65;;;0.80;99.90;;;;;;5085202;28;20055;-66
2024/01/08 00:32:51;;;;;;;14.48;6.95;;;0.70;99.90;;;;;;5085423;28;20063;-67
2024/01/08 00:35:19;;;;;;;19.25;6.97;;;0.60;99.90;;;;;;5084798;28;20044;-65
2024/01/08 00:37:47;;;;;;;10.82;5.28;;;0.60;99.90;;;;;;5084846;28;20385;-69
2024/01/08 00:40:15;;;;;;;10.82;5.65;;;0.50;99.90;;;;;;5070486;28;20507;-66
2024/01/08 00:42:42;;;;;;;12.60;5.80;;;0.40;99.90;;;;;;5072874;28;20333;-67
2024/01/08 00:45:10;;;;;;;11.88;4.90;;;0.40;99.90;;;;;;5086800;28;20044;-65
2024/01/08 00:47:39;;;;;;;11.27;5.22;;;0.40;99.90;;;;;;5087228;28;20549;-67
2024/01/08 00:50:10;;;;;;;17.08;6.05;;;0.30;99.90;;;;;;5110101;28;20152;-67
2024/01/08 00:52:38;;;;;;;12.65;6.18;;;0.30;99.90;;;;;;5081869;28;20059;-65
2024/01/08 00:55:06;;;;;;;15.23;5.80;;;0.20;99.90;;;;;;5081110;28;20484;-64
2024/01/08 00:57:34;;;;;;;15.75;5.15;;;0.20;99.90;;;;;;5072964;28;20036;-62
2024/01/08 01:00:02;;;;;;;12.50;6.03;;;0.10;99.90;;;;;;5109056;28;20050;-69
2024/01/08 01:02:31;;;;;;;15.48;5.57;;;0.00;99.90;;;;;;5077302;28;20055;-70
2024/01/08 01:04:59;;;;;;;17.98;6.60;;;0.00;99.90;;;;;;5105998;28;20057;-67
2024/01/08 01:07:27;;;;;;;18.45;6.05;;;0.00;99.90;;;;;;5111414;28;20051;-70
2024/01/08 01:09:55;;;;;;;11.38;5.28;;;-0.10;99.90;;;;;;5088026;28;20055;-71
2024/01/08 01:12:23;;;;;;;10.13;5.78;;;-0.10;99.90;;;;;;5069170;28;20135;-69
2024/01/08 01:14:51;;;;;;;13.98;6.07;;;-0.20;99.90;;;;;;5086819;28;20040;-67
2024/01/08 01:17:18;;;;;;;14.57;6.75;;;-0.20;99.90;;;;;;5089180;28;20423;-65
2024/01/08 01:19:46;;;;;;;9.80;5.78;;;-0.20;99.90;;;;;;5088635;28;20051;-70
2024/01/08 01:22:14;;;;;;;13.60;5.88;;;-0.30;99.90;;;;;;5089025;28;20047;-65
2024/01/08 01:24:42;;;;;;;15.05;6.25;;;-0.30;99.90;;;;;;5086206;28;20048;-61
2024/01/08 01:27:09;;;;;;;12.05;6.38;;;-0.40;99.90;;;;;;5068998;28;20048;-71
2024/01/08 01:29:37;;;;;;;14.30;6.13;;;-0.40;99.90;;;;;;5084344;28;20063;-68
2024/01/08 01:32:05;;;;;;;19.98;7.10;;;-0.40;99.90;;;;;;5077877;28;20036;-64
2024/01/08 01:34:34;;;;;;;17.83;6.35;;;-0.40;99.90;;;;;;5097075;28;20051;-69
2024/01/08 01:37:02;;;;;;;11.88;6.63;;;-0.40;99.90;;;;;;5089290;28;20040;-65
2024/01/08 01:39:32;;;;;;;20.13;7.05;;;-0.50;99.90;;;;;;5082004;28;20060;-69
2024/01/08 01:42:00;;;;;;;16.05;6.72;;;-0.50;99.90;;;;;;5085468;28;20048;-70
2024/01/08 01:44:27;;;;;;;16.83;7.20;;;-0.50;99.90;;;;;;5088423;28;20052;-67
2024/01/08 01:46:56;;;;;;;15.57;7.22;;;-0.50;99.90;;;;;;5082099;28;20041;-67
2024/01/08 01:49:24;;;;;;;15.88;7.35;;;-0.60;99.90;;;;;;5078614;28;20526;-69
2024/01/08 01:51:54;;;;;;;16.63;7.43;;;-0.60;99.90;;;;;;5077105;28;20045;-63
2024/01/08 01:54:23;;;;;;;17.05;7.13;;;-0.60;99.90;;;;;;5090445;28;20067;-67
2024/01/08 01:56:58;;;;;;;17.60;7.80;;;-0.60;99.90;;;;;;5087648;28;20430;-63
2024/01/08 01:59:29;;;;;;;15.57;7.15;;;-0.60;99.90;;;;;;5079900;28;20048;-62
2024/01/08 02:01:59;;;;;;;16.13;6.75;;;-0.60;99.90;;;;;;5071485;28;20041;-62
2024/01/08 02:04:29;;;;;;;15.05;6.13;;;-0.60;99.90;;;;;;5087526;28;20044;-62
2024/01/08 02:07:00;;;;;;;13.02;6.70;;;-0.60;99.90;;;;;;5088307;28;20063;-63
2024/01/08 02:09:28;;;;;;;14.57;6.90;;;-0.60;99.90;;;;;;5088040;28;20045;-63
2024/01/08 02:11:56;;;;;;;13.82;7.13;;;-0.60;99.90;;;;;;5089768;28;20059;-62
2024/01/08 02:14:23;;;;;;;17.48;7.38;;;-0.60;99.90;;;;;;5090079;28;20051;-63
2024/01/08 02:16:51;;;;;;;13.38;6.13;;;-0.70;99.90;;;;;;5089060;28;20044;-68
2024/01/08 02:19:19;;;;;;;14.45;6.25;;;-0.70;99.90;;;;;;5088707;28;20059;-69
2024/01/08 02:21:47;;;;;;;13.02;6.43;;;-0.60;99.90;;;;;;5089501;28;20040;-70
2024/01/08 02:24:15;;;;;;;12.60;6.60;;;-0.70;99.90;;;;;;5098472;28;20048;-68
2024/01/08 02:26:42;;;;;;;14.85;6.22;;;-0.70;99.90;;;;;;5079382;28;20510;-63
2024/01/08 02:29:10;;;;;;;13.57;5.70;;;-0.70;99.90;;;;;;5094006;28;20423;-68
2024/01/08 02:31:38;;;;;;;17.33;6.85;;;-0.80;99.90;;;;;;5076800;28;20044;-68
2024/01/08 02:34:06;;;;;;;16.05;7.18;;;-0.80;99.90;;;;;;5089865;28;20051;-64
2024/01/08 02:36:34;;;;;;;18.50;7.95;;;-0.80;99.90;;;;;;5085691;28;20044;-63
2024/01/08 02:39:01;;;;;;;19.65;7.78;;;-0.80;99.90;;;;;;5091257;28;20414;-64
2024/01/08 02:41:29;;;;;;;16.42;7.10;;;-0.80;99.90;;;;;;5072170;28;20052;-63
2024/01/08 02:43:57;;;;;;;22.30;7.05;;;-0.80;99.90;;;;;;5071071;28;20049;-63
2024/01/08 02:46:25;;;;;;;14.10;6.55;;;-0.90;99.90;;;;;;5079249;28;20068;-63
2024/01/08 02:48:52;;;;;;;15.25;7.35;;;-0.90;99.90;;;;;;5089863;28;20048;-62
2024/01/08 02:51:20;;;;;;;11.82;5.57;;;-0.90;99.90;;;;;;5091401;28;20047;-62
2024/01/08 02:53:48;;;;;;;11.77;5.93;;;-0.90;99.90;;;;;;5097818;28;20052;-65
2024/01/08 02:56:20;;;;;;;17.60;6.90;;;-0.90;99.90;;;;;;5089264;28;20044;-64
2024/01/08 02:58:48;;;;;;;16.13;6.53;;;-1.00;99.90;;;;;;5090592;28;20491;-62
2024/01/08 03:01:16;;;;;;;15.88;6.75;;;-1.00;99.90;;;;;;5091265;28;20059;-67
2024/01/08 03:03:44;;;;;;;16.30;6.45;;;-1.00;99.90;;;;;;5090577;28;20468;-63
2024/01/08 03:06:12;;;;;;;19.13;7.82;;;-1.00;99.90;;;;;;5087197;28;20055;-63
2024/01/08 03:08:39;;;;;;;14.85;6.35;;;-1.10;99.90;;;;;;5074730;28;20052;-63
2024/01/08 03:11:08;;;;;;;17.25;6.80;;;-1.10;99.90;;;;;;5085143;28;20040;-65
2024/01/08 03:13:35;;;;;;;16.35;6.30;;;-1.10;99.90;;;;;;5091669;28;20063;-67
2024/01/08 03:16:03;;;;;;;16.70;6.93;;;-1.10;99.90;;;;;;5094807;28;20044;-66
2024/01/08 03:18:31;;;;;;;18.05;6.93;;;-1.10;99.90;;;;;;5094361;28;20052;-66
2024/01/08 03:21:01;;;;;;;13.38;6.28;;;-1.10;99.90;;;;;;5094731;28;20055;-68
2024/01/08 03:23:28;;;;;;;15.40;6.40;;;-1.10;99.90;;;;;;5099793;28;20047;-66
2024/01/08 03:25:56;;;;;;;17.05;6.65;;;-1.10;99.90;;;;;;5114955;28;20046;-66
2024/01/08 03:28:24;;;;;;;15.77;7.40;;;-1.10;99.90;;;;;;5096747;28;20044;-65
2024/01/08 03:30:51;;;;;;;15.77;6.95;;;-1.10;99.90;;;;;;5093625;28;20501;-64
2024/01/08 03:33:19;;;;;;;17.45;7.05;;;-1.10;99.90;;;;;;5093031;28;20411;-63
2024/01/08 03:35:47;;;;;;;14.77;7.85;;;-1.00;99.90;;;;;;5094621;28;20044;-70
2024/01/08 03:38:15;;;;;;;18.27;6.88;;;-1.00;99.90;;;;;;5093883;28;20052;-64
2024/01/08 03:40:44;;;;;;;16.17;8.00;;;-0.90;99.90;;;;;;5094339;28;20047;-63
2024/01/08 03:43:12;;;;;;;18.20;7.87;;;-0.80;99.90;;;;;;5092995;28;20526;-66
2024/01/08 03:45:39;;;;;;;17.70;8.07;;;-0.70;99.90;;;;;;5094438;28;20365;-70
2024/01/08 03:48:07;;;;;;;18.55;7.30;;;-0.60;99.90;;;;;;5094245;28;20415;-66
2024/01/08 03:50:35;;;;;;;20.38;7.32;;;-0.50;99.90;;;;;;5096154;28;20036;-65
2024/01/08 03:53:03;;;;;;;17.92;7.10;;;-0.40;99.90;;;;;;5098685;28;20043;-66
2024/01/08 03:55:33;;;;;;;17.63;8.20;;;-0.40;99.90;;;;;;5104063;28;20047;-63
2024/01/08 03:58:01;;;;;;;15.95;7.18;;;-0.30;99.90;;;;;;5092180;28;20036;-64
2024/01/08 04:00:29;;;;;;;17.35;7.40;;;-0.20;99.90;;;;;;5093978;28;20052;-62
2024/01/08 04:02:57;;;;;;;14.80;6.95;;;-0.20;99.90;;;;;;5087662;28;20391;-63
2024/01/08 04:05:24;;;;;;;16.00;7.60;;;-0.10;99.90;;;;;;5093158;28;20051;-63
2024/01/08 04:07:52;;;;;;;16.00;6.72;;;-0.10;99.90;;;;;;5092724;28;20036;-63
2024/01/08 04:10:20;;;;;;;14.68;6.50;;;-0.10;99.90;;;;;;5092540;28;20047;-65
2024/01/08 04:12:47;;;;;;;16.80;6.28;;;0.00;99.90;;;;;;5093446;28;20399;-70
2024/01/08 04:15:15;;;;;;;14.05;6.13;;;0.00;99.90;;;;;;5093188;28;20036;-66
2024/01/08 04:17:43;;;;;;;19.42;6.90;;;0.10;99.90;;;;;;5093384;28;20055;-64
2024/01/08 04:20:11;;;;;;;14.02;6.30;;;0.10;99.90;;;;;;5091355;28;20064;-63
2024/01/08 04:22:45;;;;;;;14.15;6.35;;;0.10;99.90;;;;;;5091572;28;20048;-63
2024/01/08 04:25:12;;;;;;;17.02;6.78;;;0.20;99.90;;;;;;5099519;28;20414;-63
2024/01/08 04:27:40;;;;;;;14.25;6.65;;;0.20;99.90;;;;;;5093881;28;20044;-63
2024/01/08 04:30:08;;;;;;;13.43;6.07;;;0.20;99.90;;;;;;5075551;28;20060;-65
2024/01/08 04:32:36;;;;;;;15.05;6.55;;;0.20;99.90;;;;;;5093447;28;20039;-64
2024/01/08 04:35:05;;;;;;;14.63;6.45;;;0.30;99.90;;;;;;5093221;28;20055;-64
2024/01/08 04:37:33;;;;;;;14.23;5.72;;;0.30;99.90;;;;;;5093389;28;20044;-69
2024/01/08 04:40:01;;;;;;;16.25;6.40;;;0.30;99.90;;;;;;5090986;28;20052;-69
2024/01/08 04:42:29;;;;;;;14.05;5.93;;;0.30;99.90;;;;;;5092051;28;20066;-64
2024/01/08 04:44:56;;;;;;;9.80;5.32;;;0.40;99.90;;;;;;5092699;28;20044;-66
2024/01/08 04:47:24;;;;;;;17.90;6.40;;;0.40;99.90;;;;;;5093115;28;20051;-64
2024/01/08 04:49:52;;;;;;;13.85;6.30;;;0.40;99.90;;;;;;5080877;28;20048;-63
2024/01/08 04:52:19;;;;;;;11.27;5.38;;;0.40;99.90;;;;;;5075151;28;20051;-65
2024/01/08 04:54:49;;;;;;;12.23;6.05;;;0.40;99.90;;;;;;5089346;28;20044;-70
2024/01/08 04:57:17;;;;;;;12.23;5.80;;;0.40;99.90;;;;;;5091646;28;20047;-62
2024/01/08 04:59:45;;;;;;;12.68;6.35;;;0.50;99.90;;;;;;5088989;28;20056;-62
2024/01/08 05:02:12;;;;;;;13.27;6.75;;;0.50;99.90;;;;;;5092858;28;20064;-63
2024/01/08 05:04:42;;;;;;;14.98;6.57;;;0.50;99.90;;;;;;5098874;28;20047;-63
2024/01/08 05:07:12;;;;;;;17.63;6.78;;;0.50;99.90;;;;;;5096962;28;20052;-63
2024/01/08 05:09:40;;;;;;;14.27;6.60;;;0.60;99.90;;;;;;5092672;28;20055;-64
2024/01/08 05:12:07;;;;;;;17.27;7.55;;;0.60;99.90;;;;;;5091337;28;20056;-63
2024/01/08 05:14:35;;;;;;;11.02;5.88;;;0.60;99.90;;;;;;5095536;28;20058;-66
2024/01/08 05:17:03;;;;;;;17.25;6.50;;;0.60;99.90;;;;;;5095916;28;20032;-66
2024/01/08 05:19:30;;;;;;;22.00;7.15;;;0.60;99.90;;;;;;5091086;28;20063;-67
2024/01/08 05:21:58;;;;;;;15.80;6.45;;;0.60;99.90;;;;;;5092186;28;20056;-62
2024/01/08 05:24:26;;;;;;;12.65;5.70;;;0.70;99.90;;;;;;5088703;28;20051;-62
2024/01/08 05:26:54;;;;;;;10.38;5.70;;;0.70;99.90;;;;;;5092138;28;20043;-65
2024/01/08 05:29:21;;;;;;;16.73;5.57;;;0.70;99.90;;;;;;5091609;28;20051;-63
2024/01/08 05:31:49;;;;;;;15.23;6.00;;;0.70;99.90;;;;;;5092407;28;20056;-63
2024/01/08 05:34:17;;;;;;;16.40;5.57;;;0.70;99.90;;;;;;5091143;28;20044;-67
2024/01/08 05:36:45;;;;;;;14.07;6.40;;;0.70;99.90;;;;;;5092160;28;20054;-71
2024/01/08 05:39:12;;;;;;;11.23;6.35;;;0.70;99.90;;;;;;5091884;28;20048;-71
2024/01/08 05:41:43;;;;;;;15.57;6.20;;;0.70;99.90;;;;;;5083037;28;20491;-69
2024/01/08 05:44:11;;;;;;;11.77;5.82;;;0.70;99.90;;;;;;5071784;28;20602;-66
2024/01/08 05:46:42;;;;;;;16.67;6.25;;;0.70;99.90;;;;;;5088751;28;20043;-71
2024/01/08 05:49:10;;;;;;;13.25;5.85;;;0.70;99.90;;;;;;5081785;28;20048;-69
2024/01/08 05:51:38;;;;;;;11.27;5.18;;;0.70;99.90;;;;;;5088807;28;20055;-70
2024/01/08 05:54:06;;;;;;;14.85;4.85;;;0.70;99.90;;;;;;5098520;28;20043;-70
2024/01/08 05:56:34;;;;;;;10.70;5.45;;;0.80;99.90;;;;;;5107254;28;20048;-71
2024/01/08 05:59:01;;;;;;;12.73;5.82;;;0.80;99.90;;;;;;5093220;28;20044;-65
2024/01/08 06:01:29;;;;;;;17.35;5.43;;;0.80;99.90;;;;;;5084818;28;20387;-68
2024/01/08 06:03:57;;;;;;;16.73;5.85;;;0.80;99.90;;;;;;5071925;28;20051;-63
2024/01/08 06:06:25;;;;;;;14.20;5.25;;;0.80;99.90;;;;;;5084007;28;20059;-63
2024/01/08 06:08:53;;;;;;;14.05;5.32;;;0.80;99.90;;;;;;5067023;28;20059;-63
2024/01/08 06:11:20;;;;;;;14.07;5.50;;;0.80;99.90;;;;;;5083945;28;20055;-66
2024/01/08 06:13:48;;;;;;;12.02;5.95;;;0.80;99.90;;;;;;5084987;28;20051;-65
2024/01/08 06:16:16;;;;;;;13.00;6.03;;;0.80;99.90;;;;;;5084918;28;20044;-68
2024/01/08 06:18:44;;;;;;;14.55;5.93;;;1.10;99.90;;;;;;5072183;28;20047;-69
2024/01/08 06:21:12;;;;;;;16.98;5.57;;;0.90;99.90;;;;;;5065099;28;20052;-69
2024/01/08 06:23:40;;;;;;;16.42;5.55;;;0.90;99.90;;;;;;5089549;28;20486;-70
2024/01/08 06:26:08;;;;;;;16.98;6.45;;;0.90;99.90;;;;;;5106028;28;20043;-64
2024/01/08 06:28:36;;;;;;;14.40;6.35;;;0.90;99.90;;;;;;5096347;28;20514;-69
2024/01/08 06:31:04;;;;;;;11.20;5.53;;;0.90;99.90;;;;;;5087152;28;20416;-65
2024/01/08 06:33:34;;;;;;;11.63;5.32;;;0.90;99.90;;;;;;5084702;28;20393;-67
2024/01/08 06:36:02;;;;;;;11.07;5.63;;;0.90;99.90;;;;;;5088344;28;20387;-64
2024/01/08 06:38:30;;;;;;;15.00;6.22;;;0.90;99.90;;;;;;5091517;28;20055;-69
2024/01/08 06:40:57;;;;;;;13.88;6.10;;;0.90;99.90;;;;;;5092535;28;20047;-68
2024/01/08 06:43:25;;;;;;;15.25;5.95;;;0.90;99.90;;;;;;5094278;28;20051;-67
2024/01/08 06:45:54;;;;;;;12.45;5.53;;;0.90;99.90;;;;;;5075411;28;20055;-64
2024/01/08 06:48:21;;;;;;;10.80;5.60;;;0.90;99.90;;;;;;5086373;28;20048;-63
2024/01/08 06:50:49;;;;;;;11.60;5.57;;;0.90;99.90;;;;;;5072572;28;20055;-66
2024/01/08 06:53:17;;;;;;;11.30;5.63;;;0.90;99.90;;;;;;5089342;28;20051;-69
2024/01/08 06:55:45;;;;;;;20.42;7.13;;;0.90;99.90;;;;;;5112580;28;20051;-68
2024/01/08 06:58:12;;;;;;;14.98;7.07;;;0.90;99.90;;;;;;5102674;28;20485;-66
2024/01/08 07:00:40;;;;;;;15.38;6.85;;;0.90;99.90;;;;;;5086808;28;20059;-62
2024/01/08 07:03:08;;;;;;;17.33;6.35;;;0.90;99.90;;;;;;5077157;28;20649;-63
2024/01/08 07:05:36;;;;;;;20.27;6.60;;;0.90;99.90;;;;;;5068157;28;20048;-65
2024/01/08 07:08:07;;;;;;;14.27;6.38;;;0.90;99.90;;;;;;5087018;28;20410;-66
2024/01/08 07:10:35;;;;;;;19.13;7.20;;;1.00;99.90;;;;;;5113798;28;20077;-64
2024/01/08 07:13:03;;;;;;;18.95;8.07;;;1.00;99.90;;;;;;5095056;28;20045;-63
2024/01/08 07:15:43;;;;;;;14.00;6.50;;;1.00;99.90;;;;;;5080955;28;20044;-69
2024/01/08 07:18:11;;;;;;;13.63;6.10;;;1.00;99.90;;;;;;5084465;28;20056;-63
2024/01/08 07:20:40;;;;;;;17.17;7.35;;;1.00;99.90;;;;;;5068743;28;20052;-63
2024/01/08 07:23:15;;;;;;;11.70;6.22;;;1.00;99.90;;;;;;5085316;28;20048;-63
2024/01/08 07:25:42;;;;;;;21.00;7.50;;;1.00;99.90;;;;;;5071148;28;20049;-65
2024/01/08 07:28:11;;;;;;;15.52;6.57;;;1.00;99.90;;;;;;5079674;28;20036;-64
2024/01/08 07:30:39;;;;;;;17.90;6.65;;;1.00;99.90;;;;;;5096229;28;20036;-64
2024/01/08 07:33:07;;;;;;;12.52;6.05;;;1.00;99.90;;;;;;5078908;28;20048;-65
2024/01/08 07:35:35;;;;;;;11.63;6.07;;;1.10;99.90;;;;;;5073464;28;20044;-63
2024/01/08 07:38:03;;;;;;;12.90;6.13;;;1.10;99.90;;;;;;5091215;28;20048;-63
2024/01/08 07:40:31;;;;;;;17.33;6.10;;;1.10;99.90;;;;;;5089295;28;20079;-63
2024/01/08 07:42:58;;;;;;;13.70;6.40;;;1.10;99.90;;;;;;5089337;28;20040;-63
2024/01/08 07:45:27;;;;;;;12.45;6.10;;;1.10;99.90;;;;;;5090028;28;20044;-64
2024/01/08 07:47:56;;;;;;;21.63;6.88;;;1.10;99.90;;;;;;5088936;28;20047;-64
2024/01/08 07:50:25;;;;;;;15.45;6.50;;;1.10;99.90;;;;;;5071005;28;20400;-64
2024/01/08 07:52:53;;;;;;;14.15;7.07;;;1.10;99.90;;;;;;5078270;28;20408;-66
2024/01/08 07:55:21;;;;;;;15.25;5.95;;;1.10;99.90;;;;;;5089515;28;20052;-63
2024/01/08 07:57:48;;;;;;;12.15;6.93;;;1.10;99.90;;;;;;5090444;28;20467;-63
2024/01/08 08:00:16;;;;;;;13.30;6.10;;;1.10;99.90;;;;;;5087905;28;20059;-66
2024/01/08 08:02:45;;;;;;;14.63;6.78;;;1.10;99.90;;;;;;5087155;28;20052;-66
2024/01/08 08:05:13;;;;;;;14.10;7.60;;;1.10;99.90;;;;;;5072828;28;20472;-65
2024/01/08 08:07:41;;;;;;;13.25;6.43;;;1.10;99.90;;;;;;5089132;28;20044;-63
2024/01/08 08:10:09;;;;;;;16.73;6.90;;;1.10;99.90;;;;;;5089148;28;20040;-64
2024/01/08 08:12:36;;;;;;;11.10;6.18;;;1.20;99.90;;;;;;5090277;28;20052;-64
2024/01/08 08:15:05;;;;;;;16.27;6.68;;;1.20;99.90;;;;;;5089662;28;20044;-64
2024/01/08 08:17:32;;;;;;;15.82;7.03;;;1.20;99.90;;;;;;5088370;28;20052;-62
2024/01/08 08:20:00;;;;;;;12.57;6.22;;;1.20;99.90;;;;;;5088603;28;20051;-63
2024/01/08 08:22:28;;;;;;;11.70;6.40;;;1.20;99.90;;;;;;5090262;28;20055;-64
2024/01/08 08:24:56;;;;;;;14.52;7.25;;;1.20;99.90;;;;;;5089385;28;20043;-64
2024/01/08 08:27:24;;;;;;;18.60;6.65;;;1.20;99.90;;;;;;5088181;28;20335;-64
2024/01/08 08:29:51;;;;;;;15.23;6.20;;;1.20;99.90;;;;;;5087902;28;20055;-63
2024/01/08 08:32:19;;;;;;;12.07;6.85;;;1.30;99.90;;;;;;5079415;28;20048;-63
2024/01/08 08:34:47;;;;;;;15.43;7.38;;;1.20;99.90;;;;;;5093026;28;20124;-67
2024/01/08 08:37:15;;;;;;;12.32;7.32;;;1.20;99.90;;;;;;5068950;28;20399;-66
2024/01/08 08:39:42;;;;;;;13.07;6.80;;;1.30;99.90;;;;;;5068283;28;20055;-64
2024/01/08 08:42:10;;;;;;;15.07;7.70;;;1.30;99.90;;;;;;5080121;28;20044;-64
2024/01/08 08:44:38;;;;;;;15.18;7.70;;;1.30;99.90;;;;;;5089881;28;20048;-64
2024/01/08 08:47:06;;;;;;;16.58;8.32;;;1.30;99.90;;;;;;5080692;28;20047;-64
2024/01/08 08:49:33;;;;;;;16.65;8.27;;;1.30;99.90;;;;;;5080702;28;20045;-63
2024/01/08 08:52:02;;;;;;;21.60;8.43;;;1.40;99.90;;;;;;5074849;28;20056;-65
2024/01/08 08:54:30;;;;;;;15.23;7.68;;;1.40;99.90;;;;;;5098169;28;20051;-65
2024/01/08 08:56:58;;;;;;;17.23;8.18;;;1.40;99.90;;;;;;5086388;28;20056;-65
2024/01/08 08:59:26;;;;;;;21.70;8.73;;;1.40;99.90;;;;;;5097081;28;20493;-65
2024/01/08 09:01:54;;;;;;;18.02;9.07;;;1.40;99.90;;;;;;5104239;28;20074;-64
2024/01/08 09:04:25;;;;;;;17.97;8.73;;;1.40;99.90;;;;;;5091463;28;20045;-63
2024/01/08 09:06:55;;;;;;;20.95;8.93;;;1.40;99.90;;;;;;5075431;28;20299;-65
2024/01/08 09:09:25;;;;;;;;;;;1.40;99.90;;;;;;5088599;28;20044;-63
2024/01/08 09:11:52;;;;;;;20.02;9.25;;;1.50;99.90;;;;;;5088998;28;19924;-63
2024/01/08 09:14:20;;;;;;;21.08;8.75;;;1.50;99.90;;;;;;5109679;28;20502;-63
2024/01/08 09:16:48;;;;;;;18.92;9.27;;;1.50;99.90;;;;;;5078991;28;20071;-64
2024/01/08 09:19:16;;;;;;;19.98;9.60;;;1.60;99.90;;;;;;5081245;28;20041;-63
2024/01/08 09:21:46;;;;;;;19.95;10.63;;;1.60;99.90;;;;;;5069614;28;20045;-63
2024/01/08 09:24:14;;;;;;;;;;;1.60;99.90;;;;;;5085726;28;20040;-64
2024/01/08 09:26:42;;;;;;;18.77;8.65;;;1.70;99.90;;;;;;5069324;28;19924;-63
2024/01/08 09:29:11;;;;;;;17.85;9.32;;;1.70;99.90;;;;;;5088248;28;20044;-64
2024/01/08 09:31:39;;;;;;;20.67;9.75;;;1.80;99.90;;;;;;5089234;28;20055;-63
2024/01/08 09:34:07;;;;;;;18.85;9.45;;;1.80;99.90;;;;;;5086330;28;20048;-64
2024/01/08 09:36:37;;;;;;;17.25;9.48;;;1.80;99.90;;;;;;5068878;28;20472;-65
2024/01/08 09:39:05;;;;;;;20.35;9.52;;;1.80;99.90;;;;;;5084453;28;20055;-64
2024/01/08 09:41:33;;;;;;;26.77;11.55;;;1.90;99.90;;;;;;5088803;28;20059;-63
2024/01/08 09:44:04;;;;;;;16.67;9.43;;;1.90;99.90;;;;;;5081100;28;20037;-63
2024/01/08 09:46:36;;;;;;;16.65;9.02;;;1.90;99.90;;;;;;5078087;28;20063;-66
2024/01/08 09:49:04;;;;;;;15.48;8.15;;;2.00;99.90;;;;;;5092081;28;20033;-65
2024/01/08 09:51:31;;;;;;;14.45;7.65;;;2.10;99.90;;;;;;5078325;28;20051;-63
2024/01/08 09:54:00;;;;;;;15.27;6.22;;;2.10;99.90;;;;;;5088410;28;20051;-64
2024/01/08 09:56:30;;;;;;;11.77;6.47;;;2.10;99.90;;;;;;5088804;28;20528;-69
2024/01/08 09:58:58;;;;;;;10.30;4.85;;;2.20;99.90;;;;;;5088572;28;20040;-64
2024/01/08 10:01:26;;;;;;;9.90;5.15;;;2.20;99.90;;;;;;5086919;28;20067;-63
2024/01/08 10:03:54;;;;;;;13.15;5.05;;;2.20;99.90;;;;;;5085154;28;20483;-63
2024/01/08 10:06:22;;;;;;;6.57;4.20;;;2.30;99.90;;;;;;5080886;28;20487;-64
2024/01/08 10:08:51;;;;;;;8.90;3.90;;;2.30;99.90;;;;;;5091410;28;20047;-63
2024/01/08 10:11:19;;;;;;;6.35;3.92;;;2.40;99.90;;;;;;5077612;28;20292;-64
2024/01/08 10:13:46;;;;;;;8.25;3.75;;;2.40;99.90;;;;;;5082883;28;20049;-62
2024/01/08 10:16:15;;;;;;;7.95;3.83;;;2.50;99.90;;;;;;5087954;28;20051;-64
2024/01/08 10:18:47;;;;;;;8.27;4.28;;;2.50;99.90;;;;;;5086792;28;20056;-64
2024/01/08 10:21:16;;;;;;;10.38;4.38;;;2.50;99.90;;;;;;5083004;28;20478;-64
2024/01/08 10:23:46;;;;;;;9.13;4.50;;;2.50;99.90;;;;;;5088357;28;20521;-63
2024/01/08 10:26:16;;;;;;;6.55;4.18;;;2.60;99.90;;;;;;5086919;28;20048;-63
2024/01/08 10:28:45;;;;;;;9.25;3.67;;;2.60;99.90;;;;;;5095001;28;20040;-66
2024/01/08 10:31:13;;;;;;;10.75;4.25;;;2.60;99.90;;;;;;5097087;28;20450;-64
2024/01/08 10:33:40;;;;;;;7.25;3.90;;;2.60;99.90;;;;;;5100929;28;20059;-70
2024/01/08 10:36:10;;;;;;;8.35;4.00;;;2.70;99.90;;;;;;5076656;28;20492;-69
2024/01/08 10:38:39;;;;;;;8.40;4.37;;;2.70;99.90;;;;;;5095478;28;20506;-66
2024/01/08 10:41:07;;;;;;;10.10;4.25;;;2.80;99.90;;;;;;5106999;28;20040;-63
2024/01/08 10:43:35;;;;;;;9.25;4.35;;;2.80;99.90;;;;;;5093289;28;20044;-67
2024/01/08 10:46:04;;;;;;;9.00;3.95;;;2.90;99.90;;;;;;5087350;28;20051;-63
2024/01/08 10:48:40;;;;;;;7.65;3.63;;;2.90;99.90;;;;;;5088905;28;20044;-62
2024/01/08 10:51:09;;;;;;;7.07;3.80;;;3.00;99.90;;;;;;5089241;28;20074;-66
2024/01/08 10:53:53;;;;;;;10.57;4.43;;;3.00;99.90;;;;;;5101634;28;20048;-66
2024/01/08 10:56:26;;;;;;;11.07;4.93;;;3.00;99.90;;;;;;5108028;28;20054;-66
2024/01/08 10:59:10;;;;;;;6.22;3.72;;;3.00;99.90;;;;;;5097931;28;20043;-64
2024/01/08 11:01:38;;;;;;;10.88;4.32;;;3.10;99.90;;;;;;5108148;28;20506;-72
2024/01/08 11:04:06;;;;;;;6.15;3.95;;;3.00;99.90;;;;;;5088933;28;20052;-71
2024/01/08 11:06:38;;;;;;;8.13;3.60;;;3.10;99.90;;;;;;5076760;28;20037;-72
2024/01/08 11:09:26;;;;;;;7.53;3.50;;;3.10;99.90;;;;;;5095458;28;20373;-71
2024/01/08 11:11:55;;;;;;;8.43;3.55;;;3.10;99.90;;;;;;5087847;28;20048;-66
2024/01/08 11:14:24;;;;;;;5.60;3.08;;;3.10;99.90;;;;;;5086914;28;20047;-64
2024/01/08 11:16:52;;;;;;;5.07;2.90;;;3.20;99.90;;;;;;5079866;28;20040;-66
2024/01/08 11:19:20;;;;;;;6.35;2.30;;;3.20;99.90;;;;;;5063735;28;20520;-71
2024/01/08 11:21:50;;;;;;;6.82;2.35;;;3.20;99.90;;;;;;5068897;28;20492;-66
2024/01/08 11:24:18;;;;;;;7.43;1.88;;;3.20;99.90;;;;;;5074532;28;20055;-63
2024/01/08 11:26:49;;;;;;;7.28;2.63;;;3.20;99.90;;;;;;5075535;28;20040;-64
2024/01/08 11:29:17;;;;;;;4.30;1.67;;;3.10;99.90;;;;;;5080414;28;20051;-62
2024/01/08 11:31:48;;;;;;;3.75;1.38;;;3.10;99.90;;;;;;5091643;28;20052;-69
2024/01/08 11:34:44;;;;;;;5.93;1.67;;;3.10;99.90;;;;;;5094761;28;20048;-63
2024/01/08 11:37:33;;;;;;;4.10;1.90;;;3.10;99.90;;;;;;5076618;28;20048;-63
2024/01/08 11:40:32;;;;;;;7.55;1.58;;;3.00;99.90;;;;;;5071842;28;20520;-62
2024/01/08 11:43:01;;;;;;;4.80;1.35;;;3.00;99.90;;;;;;5086101;28;20040;-63
2024/01/08 11:45:29;;;;;;;3.15;1.42;;;3.00;99.90;;;;;;5090936;28;20052;-63
2024/01/08 11:47:57;;;;;;;3.85;1.40;;;3.00;99.90;;;;;;5088770;28;20055;-63
2024/01/08 11:50:25;;;;;;;6.18;1.42;;;3.00;99.90;;;;;;5086572;28;20476;-63
2024/01/08 11:52:59;;;;;;;4.80;1.40;;;3.00;99.90;;;;;;5080850;28;20118;-63
2024/01/08 11:55:27;;;;;;;2.70;1.25;;;3.10;99.90;;;;;;5089159;28;20040;-63
2024/01/08 11:57:55;;;;;;;3.25;1.63;;;3.10;99.90;;;;;;5095207;28;20047;-71
2024/01/08 12:00:28;;;;;;;5.90;1.58;;;3.10;99.90;;;;;;5110956;28;20043;-70
2024/01/08 12:03:03;;;;;;;5.07;1.73;;;3.10;99.90;;;;;;5102593;28;20058;-72
2024/01/08 12:05:32;;;;;;;3.63;1.38;;;3.10;99.90;;;;;;5079248;28;20064;-67
2024/01/08 12:07:59;;;;;;;4.50;1.88;;;3.10;99.90;;;;;;5075624;28;20387;-70
2024/01/08 12:10:28;;;;;;;3.80;1.10;;;3.10;99.90;;;;;;5082189;28;20056;-69
2024/01/08 12:12:56;;;;;;;3.33;1.35;;;3.10;99.90;;;;;;5090839;28;20048;-68
2024/01/08 12:15:27;;;;;;;3.70;1.48;;;3.20;99.90;;;;;;5096500;28;20044;-68
2024/01/08 12:17:55;;;;;;;7.35;1.75;;;3.20;99.90;;;;;;5086637;28;20523;-73
2024/01/08 12:20:23;;;;;;;3.88;1.40;;;3.20;99.90;;;;;;5088105;28;20047;-68
2024/01/08 12:22:51;;;;;;;8.73;2.05;;;3.20;99.90;;;;;;5087630;28;20044;-69
2024/01/08 12:25:18;;;;;;;3.70;1.50;;;3.30;99.90;;;;;;5089878;28;20055;-64
2024/01/08 12:27:47;;;;;;;4.45;1.20;;;3.20;99.90;;;;;;5088901;28;20559;-69
2024/01/08 12:30:15;;;;;;;2.83;1.10;;;3.20;99.90;;;;;;5106803;28;20055;-64
2024/01/08 12:32:43;;;;;;;3.40;1.27;;;3.20;99.90;;;;;;5107582;28;20399;-63
2024/01/08 12:35:12;;;;;;;4.82;1.52;;;3.20;99.90;;;;;;5098189;28;20044;-62
2024/01/08 12:37:43;;;;;;;5.55;1.40;;;3.20;99.90;;;;;;5091153;28;20494;-62
2024/01/08 12:40:13;;;;;;;4.43;1.30;;;3.30;99.90;;;;;;5090112;28;20044;-62
2024/01/08 12:42:44;;;;;;;5.05;1.75;;;3.30;99.90;;;;;;5087754;28;20064;-62
2024/01/08 12:45:11;;;;;;;2.63;1.15;;;3.30;99.90;;;;;;5089979;28;20607;-61
2024/01/08 12:47:39;;;;;;;4.13;1.30;;;3.30;99.90;;;;;;5091232;28;20052;-62
2024/01/08 12:50:08;;;;;;;5.18;2.00;;;3.30;99.90;;;;;;5109988;28;20050;-63
2024/01/08 12:52:35;;;;;;;4.80;1.30;;;3.40;99.90;;;;;;5093291;28;20536;-62
2024/01/08 12:55:03;;;;;;;5.15;1.17;;;3.30;99.90;;;;;;5089886;28;20044;-62